sensor_id;sensor_type;location;lat;lon;timestamp;temperature;humidity
1988;DHT22;12775;46.994;15.498;2022-12-18T00:00:45;2.40;99.90
1988;DHT22;12775;46.994;15.498;2022-12-18T00:03:12;2.40;99.90
1988;DHT22;12775;46.994;15.498;2022-12-18T00:05:45;2.50;99.90
1988;DHT22;12775;46.994;15.498;2022-12-18T00:08:12;2.50;99.90
1988;DHT22;12775;46.994;15.498;2022-12-18T00:10:40;2.60;99.90
1988;DHT22;12775;46.994;15.498;2022-12-18T00:13:07;2.50;99.90
1988;DHT22;12775;46.994;15.498;2022-12-18T00:15:35;2.60;99.90
1988;DHT22;12775;46.994;15.498;2022-12-18T00:18:02;2.60;99.90
1988;DHT22;12775;46.994;15.498;2022-12-18T00:20:29;2.60;99.90
1988;DHT22;12775;46.994;15.498;2022-12-18T00:22:56;2.70;99.90
1988;DHT22;12775;46.994;15.498;2022-12-18T00:25:24;2.60;99.90
1988;DHT22;12775;46.994;15.498;2022-12-18T00:27:51;2.60;99.90
1988;DHT22;12775;46.994;15.498;2022-12-18T00:30:18;2.50;99.90
1988;DHT22;12775;46.994;15.498;2022-12-18T00:32:46;2.50;99.90
1988;DHT22;12775;46.994;15.498;2022-12-18T00:35:13;2.60;99.90
1988;DHT22;12775;46.994;15.498;2022-12-18T00:37:41;2.60;99.90
1988;DHT22;12775;46.994;15.498;2022-12-18T00:40:09;2.70;99.90
1988;DHT22;12775;46.994;15.498;2022-12-18T00:42:36;2.70;99.90
1988;DHT22;12775;46.994;15.498;2022-12-18T00:45:09;2.80;99.90
1988;DHT22;12775;46.994;15.498;2022-12-18T00:47:37;2.80;99.90
1988;DHT22;12775;46.994;15.498;2022-12-18T00:50:05;2.90;99.90
1988;DHT22;12775;46.994;15.498;2022-12-18T00:52:33;2.90;99.90
1988;DHT22;12775;46.994;15.498;2022-12-18T00:55:00;2.90;99.90
1988;DHT22;12775;46.994;15.498;2022-12-18T00:57:27;2.90;99.80
1988;DHT22;12775;46.994;15.498;2022-12-18T01:02:23;2.90;99.40
1988;DHT22;12775;46.994;15.498;2022-12-18T01:04:50;2.90;99.60
1988;DHT22;12775;46.994;15.498;2022-12-18T01:07:18;2.90;99.50
1988;DHT22;12775;46.994;15.498;2022-12-18T01:09:45;2.90;98.90
1988;DHT22;12775;46.994;15.498;2022-12-18T01:12:12;2.90;98.60
1988;DHT22;12775;46.994;15.498;2022-12-18T01:14:40;2.90;98.00
1988;DHT22;12775;46.994;15.498;2022-12-18T01:17:07;2.80;97.80
1988;DHT22;12775;46.994;15.498;2022-12-18T01:19:34;2.80;97.50
1988;DHT22;12775;46.994;15.498;2022-12-18T01:22:02;2.80;97.40
1988;DHT22;12775;46.994;15.498;2022-12-18T01:24:29;2.70;97.20
1988;DHT22;12775;46.994;15.498;2022-12-18T01:26:56;2.70;96.70
1988;DHT22;12775;46.994;15.498;2022-12-18T01:29:24;2.60;96.60
1988;DHT22;12775;46.994;15.498;2022-12-18T01:31:54;2.60;96.70
1988;DHT22;12775;46.994;15.498;2022-12-18T01:34:18;2.50;96.60
1988;DHT22;12775;46.994;15.498;2022-12-18T01:36:46;2.50;96.60
1988;DHT22;12775;46.994;15.498;2022-12-18T01:39:14;2.50;96.50
1988;DHT22;12775;46.994;15.498;2022-12-18T01:41:41;2.40;96.40
1988;DHT22;12775;46.994;15.498;2022-12-18T01:46:53;2.40;96.30
1988;DHT22;12775;46.994;15.498;2022-12-18T01:49:20;2.30;96.20
1988;DHT22;12775;46.994;15.498;2022-12-18T01:51:48;2.30;96.20
1988;DHT22;12775;46.994;15.498;2022-12-18T01:54:15;2.30;96.20
1988;DHT22;12775;46.994;15.498;2022-12-18T01:56:42;2.20;95.90
1988;DHT22;12775;46.994;15.498;2022-12-18T01:59:10;2.20;95.90
1988;DHT22;12775;46.994;15.498;2022-12-18T02:01:37;2.10;95.50
1988;DHT22;12775;46.994;15.498;2022-12-18T02:04:18;2.10;95.60
1988;DHT22;12775;46.994;15.498;2022-12-18T02:06:42;2.10;95.70
1988;DHT22;12775;46.994;15.498;2022-12-18T02:09:11;2.10;95.70
1988;DHT22;12775;46.994;15.498;2022-12-18T02:11:44;2.00;95.60
1988;DHT22;12775;46.994;15.498;2022-12-18T02:16:51;1.90;95.10
1988;DHT22;12775;46.994;15.498;2022-12-18T02:19:20;1.90;95.20
1988;DHT22;12775;46.994;15.498;2022-12-18T02:21:51;1.80;95.30
1988;DHT22;12775;46.994;15.498;2022-12-18T02:24:28;1.80;95.20
1988;DHT22;12775;46.994;15.498;2022-12-18T02:26:50;1.80;95.20
1988;DHT22;12775;46.994;15.498;2022-12-18T02:29:22;1.70;95.20
1988;DHT22;12775;46.994;15.498;2022-12-18T02:31:54;1.70;95.00
1988;DHT22;12775;46.994;15.498;2022-12-18T02:34:21;1.70;95.00
1988;DHT22;12775;46.994;15.498;2022-12-18T02:36:47;1.60;95.30
1988;DHT22;12775;46.994;15.498;2022-12-18T02:39:15;1.60;95.30
1988;DHT22;12775;46.994;15.498;2022-12-18T02:41:44;1.60;95.20
1988;DHT22;12775;46.994;15.498;2022-12-18T02:44:12;1.50;95.10
1988;DHT22;12775;46.994;15.498;2022-12-18T02:46:43;1.50;95.10
1988;DHT22;12775;46.994;15.498;2022-12-18T02:49:15;1.50;95.10
1988;DHT22;12775;46.994;15.498;2022-12-18T02:52:05;1.50;94.90
1988;DHT22;12775;46.994;15.498;2022-12-18T02:54:37;1.50;94.80
1988;DHT22;12775;46.994;15.498;2022-12-18T02:57:13;1.40;94.90
1988;DHT22;12775;46.994;15.498;2022-12-18T02:59:39;1.30;94.80
1988;DHT22;12775;46.994;15.498;2022-12-18T03:02:17;1.20;95.00
1988;DHT22;12775;46.994;15.498;2022-12-18T03:04:43;1.20;95.10
1988;DHT22;12775;46.994;15.498;2022-12-18T03:07:09;1.20;95.00
1988;DHT22;12775;46.994;15.498;2022-12-18T03:09:36;1.20;95.20
1988;DHT22;12775;46.994;15.498;2022-12-18T03:12:19;1.10;94.90
1988;DHT22;12775;46.994;15.498;2022-12-18T03:14:56;1.10;95.00
1988;DHT22;12775;46.994;15.498;2022-12-18T03:17:22;1.00;95.10
1988;DHT22;12775;46.994;15.498;2022-12-18T03:19:48;1.00;95.20
1988;DHT22;12775;46.994;15.498;2022-12-18T03:22:16;1.00;95.10
1988;DHT22;12775;46.994;15.498;2022-12-18T03:24:45;1.00;95.00
1988;DHT22;12775;46.994;15.498;2022-12-18T03:27:12;1.00;94.60
1988;DHT22;12775;46.994;15.498;2022-12-18T03:29:42;1.00;94.50
1988;DHT22;12775;46.994;15.498;2022-12-18T03:32:15;1.00;94.80
1988;DHT22;12775;46.994;15.498;2022-12-18T03:34:39;0.90;94.80
1988;DHT22;12775;46.994;15.498;2022-12-18T03:37:07;0.90;94.90
1988;DHT22;12775;46.994;15.498;2022-12-18T03:39:34;0.90;94.90
1988;DHT22;12775;46.994;15.498;2022-12-18T03:42:09;0.90;94.90
1988;DHT22;12775;46.994;15.498;2022-12-18T03:44:42;0.80;94.80
1988;DHT22;12775;46.994;15.498;2022-12-18T03:47:14;0.90;94.80
1988;DHT22;12775;46.994;15.498;2022-12-18T03:49:46;0.80;94.70
1988;DHT22;12775;46.994;15.498;2022-12-18T03:52:19;0.80;94.50
1988;DHT22;12775;46.994;15.498;2022-12-18T03:54:47;0.80;94.40
1988;DHT22;12775;46.994;15.498;2022-12-18T03:57:18;0.80;94.50
1988;DHT22;12775;46.994;15.498;2022-12-18T03:59:44;0.70;94.20
1988;DHT22;12775;46.994;15.498;2022-12-18T04:02:11;0.70;94.30
1988;DHT22;12775;46.994;15.498;2022-12-18T04:04:39;0.60;94.40
1988;DHT22;12775;46.994;15.498;2022-12-18T04:07:06;0.60;94.30
1988;DHT22;12775;46.994;15.498;2022-12-18T04:09:33;0.60;94.40
1988;DHT22;12775;46.994;15.498;2022-12-18T04:12:01;0.50;94.60
1988;DHT22;12775;46.994;15.498;2022-12-18T04:14:28;0.50;94.70
1988;DHT22;12775;46.994;15.498;2022-12-18T04:16:55;0.40;94.50
1988;DHT22;12775;46.994;15.498;2022-12-18T04:19:23;0.40;94.40
1988;DHT22;12775;46.994;15.498;2022-12-18T04:21:50;0.30;94.80
1988;DHT22;12775;46.994;15.498;2022-12-18T04:24:17;0.30;94.50
1988;DHT22;12775;46.994;15.498;2022-12-18T04:26:45;0.30;94.50
1988;DHT22;12775;46.994;15.498;2022-12-18T04:29:12;0.30;94.50
1988;DHT22;12775;46.994;15.498;2022-12-18T04:31:39;0.20;94.40
1988;DHT22;12775;46.994;15.498;2022-12-18T04:34:07;0.30;94.70
1988;DHT22;12775;46.994;15.498;2022-12-18T04:36:34;0.20;94.90
1988;DHT22;12775;46.994;15.498;2022-12-18T04:39:02;0.10;95.00
1988;DHT22;12775;46.994;15.498;2022-12-18T04:41:29;0.10;95.20
1988;DHT22;12775;46.994;15.498;2022-12-18T04:43:56;0.10;95.40
1988;DHT22;12775;46.994;15.498;2022-12-18T04:46:24;0.00;95.70
1988;DHT22;12775;46.994;15.498;2022-12-18T04:48:51;0.00;95.90
1988;DHT22;12775;46.994;15.498;2022-12-18T04:51:19;-0.10;95.60
1988;DHT22;12775;46.994;15.498;2022-12-18T04:53:46;0.00;96.10
1988;DHT22;12775;46.994;15.498;2022-12-18T04:56:14;-0.10;96.20
1988;DHT22;12775;46.994;15.498;2022-12-18T04:58:42;-0.10;96.50
1988;DHT22;12775;46.994;15.498;2022-12-18T05:01:09;-0.20;96.60
1988;DHT22;12775;46.994;15.498;2022-12-18T05:03:36;-0.10;96.70
1988;DHT22;12775;46.994;15.498;2022-12-18T05:06:04;-0.10;96.80
1988;DHT22;12775;46.994;15.498;2022-12-18T05:08:31;-0.10;96.90
1988;DHT22;12775;46.994;15.498;2022-12-18T05:11:00;-0.20;97.00
1988;DHT22;12775;46.994;15.498;2022-12-18T05:13:27;-0.40;97.30
1988;DHT22;12775;46.994;15.498;2022-12-18T05:15:54;-0.40;97.50
1988;DHT22;12775;46.994;15.498;2022-12-18T05:18:23;-0.40;97.60
1988;DHT22;12775;46.994;15.498;2022-12-18T05:20:50;-0.40;97.70
1988;DHT22;12775;46.994;15.498;2022-12-18T05:23:17;-0.40;97.60
1988;DHT22;12775;46.994;15.498;2022-12-18T05:25:53;-0.40;97.70
1988;DHT22;12775;46.994;15.498;2022-12-18T05:28:19;-0.40;97.30
1988;DHT22;12775;46.994;15.498;2022-12-18T05:30:52;-0.40;97.10
1988;DHT22;12775;46.994;15.498;2022-12-18T05:33:18;-0.40;97.40
1988;DHT22;12775;46.994;15.498;2022-12-18T05:35:49;-0.40;97.50
1988;DHT22;12775;46.994;15.498;2022-12-18T05:38:13;-0.30;97.70
1988;DHT22;12775;46.994;15.498;2022-12-18T05:40:41;-0.30;97.30
1988;DHT22;12775;46.994;15.498;2022-12-18T05:43:07;-0.30;97.40
1988;DHT22;12775;46.994;15.498;2022-12-18T05:45:38;-0.30;97.10
1988;DHT22;12775;46.994;15.498;2022-12-18T05:48:05;-0.30;96.80
1988;DHT22;12775;46.994;15.498;2022-12-18T05:50:37;-0.30;96.70
1988;DHT22;12775;46.994;15.498;2022-12-18T05:53:04;-0.30;96.30
1988;DHT22;12775;46.994;15.498;2022-12-18T05:55:35;-0.30;96.60
1988;DHT22;12775;46.994;15.498;2022-12-18T05:58:02;-0.30;96.80
1988;DHT22;12775;46.994;15.498;2022-12-18T06:00:30;-0.30;96.90
1988;DHT22;12775;46.994;15.498;2022-12-18T06:02:57;-0.30;96.90
1988;DHT22;12775;46.994;15.498;2022-12-18T06:05:24;-0.30;96.90
1988;DHT22;12775;46.994;15.498;2022-12-18T06:07:51;-0.30;97.10
1988;DHT22;12775;46.994;15.498;2022-12-18T06:10:19;-0.30;97.00
1988;DHT22;12775;46.994;15.498;2022-12-18T06:12:46;-0.30;97.20
1988;DHT22;12775;46.994;15.498;2022-12-18T06:15:13;-0.30;97.30
1988;DHT22;12775;46.994;15.498;2022-12-18T06:17:41;-0.40;97.40
1988;DHT22;12775;46.994;15.498;2022-12-18T06:20:09;-0.30;97.70
1988;DHT22;12775;46.994;15.498;2022-12-18T06:22:36;-0.30;97.80
1988;DHT22;12775;46.994;15.498;2022-12-18T06:25:04;-0.30;98.00
1988;DHT22;12775;46.994;15.498;2022-12-18T06:27:32;-0.20;98.00
1988;DHT22;12775;46.994;15.498;2022-12-18T06:30:00;-0.30;98.20
1988;DHT22;12775;46.994;15.498;2022-12-18T06:32:27;-0.30;98.20
1988;DHT22;12775;46.994;15.498;2022-12-18T06:34:53;-0.20;98.30
1988;DHT22;12775;46.994;15.498;2022-12-18T06:37:21;-0.20;98.50
1988;DHT22;12775;46.994;15.498;2022-12-18T06:39:48;-0.20;98.50
1988;DHT22;12775;46.994;15.498;2022-12-18T06:42:15;-0.20;98.50
1988;DHT22;12775;46.994;15.498;2022-12-18T06:44:43;-0.20;98.80
1988;DHT22;12775;46.994;15.498;2022-12-18T06:47:10;-0.20;98.60
1988;DHT22;12775;46.994;15.498;2022-12-18T06:49:37;-0.30;98.70
1988;DHT22;12775;46.994;15.498;2022-12-18T06:52:05;-0.30;98.90
1988;DHT22;12775;46.994;15.498;2022-12-18T06:54:32;-0.30;99.00
1988;DHT22;12775;46.994;15.498;2022-12-18T06:56:59;-0.30;98.90
1988;DHT22;12775;46.994;15.498;2022-12-18T06:59:27;-0.30;99.10
1988;DHT22;12775;46.994;15.498;2022-12-18T07:01:54;-0.30;99.10
1988;DHT22;12775;46.994;15.498;2022-12-18T07:04:22;-0.20;99.40
1988;DHT22;12775;46.994;15.498;2022-12-18T07:06:49;-0.20;99.40
1988;DHT22;12775;46.994;15.498;2022-12-18T07:09:16;-0.20;99.70
1988;DHT22;12775;46.994;15.498;2022-12-18T07:11:45;-0.30;99.70
1988;DHT22;12775;46.994;15.498;2022-12-18T07:14:12;-0.20;99.80
1988;DHT22;12775;46.994;15.498;2022-12-18T07:16:39;-0.20;99.80
1988;DHT22;12775;46.994;15.498;2022-12-18T07:19:07;-0.20;99.90
1988;DHT22;12775;46.994;15.498;2022-12-18T07:21:34;-0.20;99.90
1988;DHT22;12775;46.994;15.498;2022-12-18T07:24:01;-0.20;99.90
1988;DHT22;12775;46.994;15.498;2022-12-18T07:26:29;-0.20;99.90
1988;DHT22;12775;46.994;15.498;2022-12-18T07:28:56;-0.10;99.90
1988;DHT22;12775;46.994;15.498;2022-12-18T07:31:24;-0.20;99.90
1988;DHT22;12775;46.994;15.498;2022-12-18T07:33:51;-0.10;99.90
1988;DHT22;12775;46.994;15.498;2022-12-18T07:36:19;-0.10;99.90
1988;DHT22;12775;46.994;15.498;2022-12-18T07:38:47;-0.10;99.90
1988;DHT22;12775;46.994;15.498;2022-12-18T07:41:14;-0.10;99.90
1988;DHT22;12775;46.994;15.498;2022-12-18T07:43:41;-0.10;99.90
1988;DHT22;12775;46.994;15.498;2022-12-18T07:46:09;0.00;99.90
1988;DHT22;12775;46.994;15.498;2022-12-18T07:48:36;0.00;99.90
1988;DHT22;12775;46.994;15.498;2022-12-18T07:51:04;0.00;99.90
1988;DHT22;12775;46.994;15.498;2022-12-18T07:53:31;0.00;99.90
1988;DHT22;12775;46.994;15.498;2022-12-18T07:55:59;0.00;99.90
1988;DHT22;12775;46.994;15.498;2022-12-18T07:58:26;0.10;99.90
1988;DHT22;12775;46.994;15.498;2022-12-18T08:00:53;0.10;99.90
1988;DHT22;12775;46.994;15.498;2022-12-18T08:03:20;0.10;99.90
1988;DHT22;12775;46.994;15.498;2022-12-18T08:05:49;0.20;99.90
1988;DHT22;12775;46.994;15.498;2022-12-18T08:08:16;0.20;99.90
1988;DHT22;12775;46.994;15.498;2022-12-18T08:10:43;0.10;99.90
1988;DHT22;12775;46.994;15.498;2022-12-18T08:13:11;0.20;99.90
1988;DHT22;12775;46.994;15.498;2022-12-18T08:15:38;0.20;99.90
1988;DHT22;12775;46.994;15.498;2022-12-18T08:18:06;0.20;99.90
1988;DHT22;12775;46.994;15.498;2022-12-18T08:20:33;0.20;99.90
1988;DHT22;12775;46.994;15.498;2022-12-18T08:23:00;0.20;99.90
1988;DHT22;12775;46.994;15.498;2022-12-18T08:25:28;0.20;99.90
1988;DHT22;12775;46.994;15.498;2022-12-18T08:27:55;0.30;99.90
1988;DHT22;12775;46.994;15.498;2022-12-18T08:30:22;0.30;99.90
1988;DHT22;12775;46.994;15.498;2022-12-18T08:32:51;0.30;99.90
1988;DHT22;12775;46.994;15.498;2022-12-18T08:35:18;0.30;99.90
1988;DHT22;12775;46.994;15.498;2022-12-18T08:37:45;0.40;99.90
1988;DHT22;12775;46.994;15.498;2022-12-18T08:40:13;0.40;99.90
1988;DHT22;12775;46.994;15.498;2022-12-18T08:42:40;0.50;99.90
1988;DHT22;12775;46.994;15.498;2022-12-18T08:45:13;0.60;99.90
1988;DHT22;12775;46.994;15.498;2022-12-18T08:47:40;0.60;99.90
1988;DHT22;12775;46.994;15.498;2022-12-18T08:50:09;0.60;99.90
1988;DHT22;12775;46.994;15.498;2022-12-18T08:52:35;0.70;99.90
1988;DHT22;12775;46.994;15.498;2022-12-18T08:55:03;0.80;99.90
1988;DHT22;12775;46.994;15.498;2022-12-18T08:57:30;0.70;99.90
1988;DHT22;12775;46.994;15.498;2022-12-18T08:59:57;0.90;99.90
1988;DHT22;12775;46.994;15.498;2022-12-18T09:02:24;0.90;99.90
1988;DHT22;12775;46.994;15.498;2022-12-18T09:04:52;0.90;99.90
1988;DHT22;12775;46.994;15.498;2022-12-18T09:07:19;1.00;99.90
1988;DHT22;12775;46.994;15.498;2022-12-18T09:09:46;1.00;99.90
1988;DHT22;12775;46.994;15.498;2022-12-18T09:12:15;1.00;99.90
1988;DHT22;12775;46.994;15.498;2022-12-18T09:14:42;1.10;99.90
1988;DHT22;12775;46.994;15.498;2022-12-18T09:17:09;1.10;99.90
1988;DHT22;12775;46.994;15.498;2022-12-18T09:19:37;1.20;99.10
1988;DHT22;12775;46.994;15.498;2022-12-18T09:22:05;1.20;99.50
1988;DHT22;12775;46.994;15.498;2022-12-18T09:24:32;1.30;99.80
1988;DHT22;12775;46.994;15.498;2022-12-18T09:26:59;1.30;99.90
1988;DHT22;12775;46.994;15.498;2022-12-18T09:29:26;1.30;99.90
1988;DHT22;12775;46.994;15.498;2022-12-18T09:31:54;1.30;99.90
1988;DHT22;12775;46.994;15.498;2022-12-18T09:34:21;1.30;99.90
1988;DHT22;12775;46.994;15.498;2022-12-18T09:36:48;1.40;99.90
1988;DHT22;12775;46.994;15.498;2022-12-18T09:39:16;1.40;99.90
1988;DHT22;12775;46.994;15.498;2022-12-18T09:41:47;1.40;99.90
1988;DHT22;12775;46.994;15.498;2022-12-18T09:44:19;1.40;99.90
1988;DHT22;12775;46.994;15.498;2022-12-18T09:46:49;1.40;99.90
1988;DHT22;12775;46.994;15.498;2022-12-18T09:49:16;1.40;99.90
1988;DHT22;12775;46.994;15.498;2022-12-18T09:51:44;1.40;99.90
1988;DHT22;12775;46.994;15.498;2022-12-18T09:54:12;1.40;99.90
1988;DHT22;12775;46.994;15.498;2022-12-18T09:56:40;1.40;99.90
1988;DHT22;12775;46.994;15.498;2022-12-18T09:59:06;1.50;99.90
1988;DHT22;12775;46.994;15.498;2022-12-18T10:01:33;1.50;99.90
1988;DHT22;12775;46.994;15.498;2022-12-18T10:04:00;1.50;99.90
1988;DHT22;12775;46.994;15.498;2022-12-18T10:09:20;1.60;99.90
1988;DHT22;12775;46.994;15.498;2022-12-18T10:11:50;1.60;99.90
1988;DHT22;12775;46.994;15.498;2022-12-18T10:14:43;1.50;99.90
1988;DHT22;12775;46.994;15.498;2022-12-18T10:17:17;1.40;99.90
1988;DHT22;12775;46.994;15.498;2022-12-18T10:19:49;1.30;99.90
1988;DHT22;12775;46.994;15.498;2022-12-18T10:22:19;1.40;99.90
1988;DHT22;12775;46.994;15.498;2022-12-18T10:25:03;1.30;99.90
1988;DHT22;12775;46.994;15.498;2022-12-18T10:27:29;1.40;99.90
1988;DHT22;12775;46.994;15.498;2022-12-18T10:29:56;1.40;99.90
1988;DHT22;12775;46.994;15.498;2022-12-18T10:32:25;1.40;99.90
1988;DHT22;12775;46.994;15.498;2022-12-18T10:34:53;1.40;99.90
1988;DHT22;12775;46.994;15.498;2022-12-18T10:37:21;1.50;99.90
1988;DHT22;12775;46.994;15.498;2022-12-18T10:40:04;1.50;99.90
1988;DHT22;12775;46.994;15.498;2022-12-18T10:42:17;1.30;99.90
1988;DHT22;12775;46.994;15.498;2022-12-18T10:44:44;1.20;99.90
1988;DHT22;12775;46.994;15.498;2022-12-18T10:47:14;1.00;99.90
1988;DHT22;12775;46.994;15.498;2022-12-18T10:49:42;0.80;99.90
1988;DHT22;12775;46.994;15.498;2022-12-18T10:52:28;0.60;99.90
1988;DHT22;12775;46.994;15.498;2022-12-18T10:54:57;0.80;99.90
1988;DHT22;12775;46.994;15.498;2022-12-18T10:57:29;0.70;99.90
1988;DHT22;12775;46.994;15.498;2022-12-18T10:59:57;0.80;99.90
1988;DHT22;12775;46.994;15.498;2022-12-18T11:02:26;0.80;99.90
1988;DHT22;12775;46.994;15.498;2022-12-18T11:04:52;1.00;99.90
1988;DHT22;12775;46.994;15.498;2022-12-18T11:07:19;1.10;99.90
1988;DHT22;12775;46.994;15.498;2022-12-18T11:09:58;1.20;99.90
1988;DHT22;12775;46.994;15.498;2022-12-18T11:12:16;1.30;99.90
1988;DHT22;12775;46.994;15.498;2022-12-18T11:14:51;1.30;99.90
1988;DHT22;12775;46.994;15.498;2022-12-18T11:17:28;1.40;99.90
1988;DHT22;12775;46.994;15.498;2022-12-18T11:19:55;1.20;99.90
1988;DHT22;12775;46.994;15.498;2022-12-18T11:22:26;1.10;99.90
1988;DHT22;12775;46.994;15.498;2022-12-18T11:24:59;1.10;99.90
1988;DHT22;12775;46.994;15.498;2022-12-18T11:27:26;1.20;99.90
1988;DHT22;12775;46.994;15.498;2022-12-18T11:30:06;1.30;99.90
1988;DHT22;12775;46.994;15.498;2022-12-18T11:32:22;1.30;99.90
1988;DHT22;12775;46.994;15.498;2022-12-18T11:34:50;1.40;99.90
1988;DHT22;12775;46.994;15.498;2022-12-18T11:37:16;1.40;99.90
1988;DHT22;12775;46.994;15.498;2022-12-18T11:39:49;1.20;99.90
1988;DHT22;12775;46.994;15.498;2022-12-18T11:42:17;1.00;99.90
1988;DHT22;12775;46.994;15.498;2022-12-18T11:47:30;1.20;99.90
1988;DHT22;12775;46.994;15.498;2022-12-18T11:49:56;1.20;99.90
1988;DHT22;12775;46.994;15.498;2022-12-18T11:52:24;1.20;99.90
1988;DHT22;12775;46.994;15.498;2022-12-18T11:54:52;0.90;99.90
1988;DHT22;12775;46.994;15.498;2022-12-18T11:57:29;0.80;99.90
1988;DHT22;12775;46.994;15.498;2022-12-18T12:00:02;0.90;99.90
1988;DHT22;12775;46.994;15.498;2022-12-18T12:02:34;0.90;99.90
1988;DHT22;12775;46.994;15.498;2022-12-18T12:05:02;0.80;99.90
1988;DHT22;12775;46.994;15.498;2022-12-18T12:07:33;1.00;99.90
1988;DHT22;12775;46.994;15.498;2022-12-18T12:10:27;1.00;99.90
1988;DHT22;12775;46.994;15.498;2022-12-18T12:13:00;1.10;99.90
1988;DHT22;12775;46.994;15.498;2022-12-18T12:16:37;1.10;99.90
1988;DHT22;12775;46.994;15.498;2022-12-18T12:21:25;1.20;99.90
1988;DHT22;12775;46.994;15.498;2022-12-18T12:26:41;1.30;99.90
1988;DHT22;12775;46.994;15.498;2022-12-18T12:29:17;1.30;99.90
1988;DHT22;12775;46.994;15.498;2022-12-18T12:31:45;1.40;99.90
1988;DHT22;12775;46.994;15.498;2022-12-18T12:34:16;1.50;99.90
1988;DHT22;12775;46.994;15.498;2022-12-18T12:36:56;1.50;99.90
1988;DHT22;12775;46.994;15.498;2022-12-18T12:39:22;1.40;99.90
1988;DHT22;12775;46.994;15.498;2022-12-18T12:41:48;1.40;99.90
1988;DHT22;12775;46.994;15.498;2022-12-18T12:44:38;1.40;99.90
1988;DHT22;12775;46.994;15.498;2022-12-18T12:47:11;1.50;99.90
1988;DHT22;12775;46.994;15.498;2022-12-18T12:49:34;1.60;99.90
1988;DHT22;12775;46.994;15.498;2022-12-18T12:52:10;1.40;99.90
1988;DHT22;12775;46.994;15.498;2022-12-18T12:54:34;1.50;99.90
1988;DHT22;12775;46.994;15.498;2022-12-18T12:57:10;1.60;99.90
1988;DHT22;12775;46.994;15.498;2022-12-18T12:59:41;1.60;99.90
1988;DHT22;12775;46.994;15.498;2022-12-18T13:02:10;1.60;99.90
1988;DHT22;12775;46.994;15.498;2022-12-18T13:04:42;1.70;99.90
1988;DHT22;12775;46.994;15.498;2022-12-18T13:07:13;1.80;99.90
1988;DHT22;12775;46.994;15.498;2022-12-18T13:12:12;1.80;99.90
1988;DHT22;12775;46.994;15.498;2022-12-18T13:14:45;1.80;99.90
1988;DHT22;12775;46.994;15.498;2022-12-18T13:17:17;1.60;99.90
1988;DHT22;12775;46.994;15.498;2022-12-18T13:19:43;1.70;99.90
1988;DHT22;12775;46.994;15.498;2022-12-18T13:22:21;1.70;99.90
1988;DHT22;12775;46.994;15.498;2022-12-18T13:24:48;1.60;99.90
1988;DHT22;12775;46.994;15.498;2022-12-18T13:29:55;1.50;99.90
1988;DHT22;12775;46.994;15.498;2022-12-18T13:32:23;1.60;99.90
1988;DHT22;12775;46.994;15.498;2022-12-18T13:35:21;1.60;99.90
1988;DHT22;12775;46.994;15.498;2022-12-18T13:37:39;1.40;99.90
1988;DHT22;12775;46.994;15.498;2022-12-18T13:40:06;1.50;99.90
1988;DHT22;12775;46.994;15.498;2022-12-18T13:42:37;1.60;99.90
1988;DHT22;12775;46.994;15.498;2022-12-18T13:45:34;1.60;99.90
1988;DHT22;12775;46.994;15.498;2022-12-18T13:47:48;1.50;99.90
1988;DHT22;12775;46.994;15.498;2022-12-18T13:50:22;1.50;99.90
1988;DHT22;12775;46.994;15.498;2022-12-18T13:52:47;1.50;99.90
1988;DHT22;12775;46.994;15.498;2022-12-18T13:55:16;1.50;99.90
1988;DHT22;12775;46.994;15.498;2022-12-18T13:57:42;1.50;99.90
1988;DHT22;12775;46.994;15.498;2022-12-18T14:00:22;1.40;99.90
1988;DHT22;12775;46.994;15.498;2022-12-18T14:02:44;1.50;99.90
1988;DHT22;12775;46.994;15.498;2022-12-18T14:05:24;1.50;99.90
1988;DHT22;12775;46.994;15.498;2022-12-18T14:07:51;1.60;99.90
1988;DHT22;12775;46.994;15.498;2022-12-18T14:10:18;1.50;99.90
1988;DHT22;12775;46.994;15.498;2022-12-18T14:12:46;1.40;99.90
1988;DHT22;12775;46.994;15.498;2022-12-18T14:15:31;1.30;99.90
1988;DHT22;12775;46.994;15.498;2022-12-18T14:17:57;1.30;99.90
1988;DHT22;12775;46.994;15.498;2022-12-18T14:20:24;1.20;99.90
1988;DHT22;12775;46.994;15.498;2022-12-18T14:22:50;1.30;99.90
1988;DHT22;12775;46.994;15.498;2022-12-18T14:25:20;1.30;99.90
1988;DHT22;12775;46.994;15.498;2022-12-18T14:27:50;1.30;99.90
1988;DHT22;12775;46.994;15.498;2022-12-18T14:30:23;1.20;99.90
1988;DHT22;12775;46.994;15.498;2022-12-18T14:33:00;1.10;99.90
1988;DHT22;12775;46.994;15.498;2022-12-18T14:35:27;1.00;99.90
1988;DHT22;12775;46.994;15.498;2022-12-18T14:38:09;0.90;99.90
1988;DHT22;12775;46.994;15.498;2022-12-18T14:40:22;1.00;99.90
1988;DHT22;12775;46.994;15.498;2022-12-18T14:42:49;1.10;99.90
1988;DHT22;12775;46.994;15.498;2022-12-18T14:47:56;1.00;99.90
1988;DHT22;12775;46.994;15.498;2022-12-18T14:50:24;1.00;99.90
1988;DHT22;12775;46.994;15.498;2022-12-18T14:52:51;1.00;99.90
1988;DHT22;12775;46.994;15.498;2022-12-18T14:55:19;1.00;99.90
1988;DHT22;12775;46.994;15.498;2022-12-18T14:57:46;1.10;99.90
1988;DHT22;12775;46.994;15.498;2022-12-18T15:00:17;1.20;99.90
1988;DHT22;12775;46.994;15.498;2022-12-18T15:02:44;1.30;99.90
1988;DHT22;12775;46.994;15.498;2022-12-18T15:05:18;1.30;99.90
1988;DHT22;12775;46.994;15.498;2022-12-18T15:07:44;1.40;99.90
1988;DHT22;12775;46.994;15.498;2022-12-18T15:10:13;1.30;99.90
1988;DHT22;12775;46.994;15.498;2022-12-18T15:12:43;1.40;99.90
1988;DHT22;12775;46.994;15.498;2022-12-18T15:17:48;1.30;99.90
1988;DHT22;12775;46.994;15.498;2022-12-18T15:20:16;1.40;99.90
1988;DHT22;12775;46.994;15.498;2022-12-18T15:22:43;1.50;99.90
1988;DHT22;12775;46.994;15.498;2022-12-18T15:25:31;1.60;99.90
1988;DHT22;12775;46.994;15.498;2022-12-18T15:27:58;1.50;99.90
1988;DHT22;12775;46.994;15.498;2022-12-18T15:30:26;1.60;99.90
1988;DHT22;12775;46.994;15.498;2022-12-18T15:33:16;1.70;99.90
1988;DHT22;12775;46.994;15.498;2022-12-18T15:35:22;1.70;99.90
1988;DHT22;12775;46.994;15.498;2022-12-18T15:37:49;1.70;99.90
1988;DHT22;12775;46.994;15.498;2022-12-18T15:40:17;1.80;99.90
1988;DHT22;12775;46.994;15.498;2022-12-18T15:42:43;1.80;99.90
1988;DHT22;12775;46.994;15.498;2022-12-18T15:45:17;1.90;99.90
1988;DHT22;12775;46.994;15.498;2022-12-18T15:47:44;1.80;99.90
1988;DHT22;12775;46.994;15.498;2022-12-18T15:50:11;1.80;99.90
1988;DHT22;12775;46.994;15.498;2022-12-18T15:52:40;1.90;99.90
1988;DHT22;12775;46.994;15.498;2022-12-18T15:55:14;1.80;99.90
1988;DHT22;12775;46.994;15.498;2022-12-18T15:57:46;1.80;99.90
1988;DHT22;12775;46.994;15.498;2022-12-18T16:00:14;1.80;99.90
1988;DHT22;12775;46.994;15.498;2022-12-18T16:02:41;1.70;99.90
1988;DHT22;12775;46.994;15.498;2022-12-18T16:05:13;1.70;99.90
1988;DHT22;12775;46.994;15.498;2022-12-18T16:07:37;1.80;99.90
1988;DHT22;12775;46.994;15.498;2022-12-18T16:10:04;1.80;99.90
1988;DHT22;12775;46.994;15.498;2022-12-18T16:12:32;1.90;99.90
1988;DHT22;12775;46.994;15.498;2022-12-18T16:14:59;2.00;99.90
1988;DHT22;12775;46.994;15.498;2022-12-18T16:17:27;2.00;99.90
1988;DHT22;12775;46.994;15.498;2022-12-18T16:19:55;2.00;99.90
1988;DHT22;12775;46.994;15.498;2022-12-18T16:22:24;2.10;99.90